createdAt,value
2018-11-06T00:03:14.341Z,101652.94
2018-11-06T00:05:42.088Z,101653.95
2018-11-06T00:08:10.426Z,101657.66
2018-11-06T00:10:38.757Z,101652.98
2018-11-06T00:13:07.093Z,101652.69
2018-11-06T00:15:36.005Z,101649.67
2018-11-06T00:18:03.751Z,101652.74
2018-11-06T00:20:32.670Z,101651.30
2018-11-06T00:23:01.010Z,101652.28
2018-11-06T00:25:28.750Z,101650.59
2018-11-06T00:27:57.674Z,101649.97
2018-11-06T00:30:26.013Z,101648.25
2018-11-06T00:32:53.759Z,101643.89
2018-11-06T00:35:22.094Z,101641.28
2018-11-06T00:37:51.017Z,101637.77
2018-11-06T00:40:18.756Z,101637.66
2018-11-06T00:42:47.092Z,101638.20
2018-11-06T00:45:16.007Z,101641.72
2018-11-06T00:47:44.344Z,101636.68
2018-11-06T00:50:12.666Z,101634.05
2018-11-06T00:52:41.002Z,101631.47
2018-11-06T00:55:08.760Z,101634.30
2018-11-06T00:57:37.668Z,101628.31
2018-11-06T01:00:05.415Z,101627.41
2018-11-06T01:02:33.741Z,101623.86
2018-11-06T01:05:02.121Z,101622.64
2018-11-06T01:07:30.408Z,101616.13
2018-11-06T01:09:58.743Z,101621.03
2018-11-06T01:12:27.071Z,101620.45
2018-11-06T01:14:55.394Z,101612.41
2018-11-06T01:17:24.303Z,101618.86
2018-11-06T01:19:52.051Z,101616.43
2018-11-06T01:22:20.973Z,101620.23
2018-11-06T01:24:49.303Z,101618.75
2018-11-06T01:27:17.630Z,101619.63
2018-11-06T01:29:45.384Z,101616.37
2018-11-06T01:32:14.303Z,101610.23
2018-11-06T01:34:42.049Z,101609.62
2018-11-06T01:37:10.388Z,101601.94
2018-11-06T01:39:38.715Z,101596.59
2018-11-06T01:42:07.050Z,101589.89
2018-11-06T01:44:35.377Z,101589.83
2018-11-06T01:47:03.715Z,101580.26
2018-11-06T01:49:32.646Z,101581.36
2018-11-06T01:52:00.381Z,101584.03
2018-11-06T01:54:28.708Z,101585.13
2018-11-06T01:56:57.067Z,101583.61
2018-11-06T01:59:25.980Z,101577.16
2018-11-06T02:01:54.313Z,101577.23
2018-11-06T02:04:22.656Z,101566.69
2018-11-06T02:06:50.404Z,101561.74
2018-11-06T02:09:18.735Z,101562.42
2018-11-06T02:11:47.645Z,101563.77
2018-11-06T02:14:15.396Z,101561.47
2018-11-06T02:16:43.734Z,101553.98
2018-11-06T02:19:12.663Z,101556.25
2018-11-06T02:21:40.998Z,101553.04
2018-11-06T02:24:08.748Z,101549.48
2018-11-06T02:26:37.185Z,101540.80
2018-11-06T02:29:05.405Z,101541.30
2018-11-06T02:31:34.321Z,101540.58
2018-11-06T02:34:02.648Z,101552.03
2018-11-06T02:36:30.401Z,101547.24
2018-11-06T02:38:58.741Z,101557.91
2018-11-06T02:41:27.656Z,101568.56
2018-11-06T02:43:55.409Z,101564.72
2018-11-06T02:46:24.318Z,101562.66
2018-11-06T02:48:52.071Z,101557.19
2018-11-06T02:51:20.984Z,101565.34
2018-11-06T02:53:48.737Z,101567.91
2018-11-06T02:56:17.070Z,101563.36
2018-11-06T02:58:46.016Z,101565.53
2018-11-06T03:01:14.348Z,101571.80
2018-11-06T03:03:42.093Z,101561.46
2018-11-06T03:06:10.423Z,101562.26
2018-11-06T03:08:39.350Z,101560.36
2018-11-06T03:11:07.689Z,101563.86
2018-11-06T03:13:36.017Z,101546.11
2018-11-06T03:16:04.352Z,101556.05
2018-11-06T03:18:32.683Z,101555.43
2018-11-06T03:21:01.013Z,101558.73
2018-11-06T03:23:28.765Z,101555.61
2018-11-06T03:25:57.097Z,101566.30
2018-11-06T03:28:26.007Z,101561.88
2018-11-06T03:30:53.757Z,101561.75
2018-11-06T03:33:22.672Z,101560.48
2018-11-06T03:35:50.420Z,101561.23
2018-11-06T03:38:19.324Z,101555.85
2018-11-06T03:40:47.652Z,101553.56
2018-11-06T03:43:15.992Z,101553.67
2018-11-06T03:45:43.743Z,101547.82
2018-11-06T03:48:12.646Z,101549.70
2018-11-06T03:50:40.388Z,101551.27
2018-11-06T03:53:08.717Z,101550.94
2018-11-06T03:55:37.039Z,101539.70
2018-11-06T03:58:05.380Z,101538.27
2018-11-06T04:00:34.295Z,101540.27
2018-11-06T04:03:02.578Z,101539.20
2018-11-06T04:05:30.364Z,101537.66
2018-11-06T04:07:58.695Z,101535.56
2018-11-06T04:10:27.596Z,101538.72
2018-11-06T04:12:55.344Z,101533.71
2018-11-06T04:15:23.670Z,101533.72
2018-11-06T04:17:52.571Z,101538.23
2018-11-06T04:20:20.893Z,101532.48
2018-11-06T04:22:49.216Z,101530.05
2018-11-06T04:25:17.538Z,101522.77
2018-11-06T04:27:45.633Z,101521.06
2018-11-06T04:30:13.623Z,101517.78
2018-11-06T04:32:41.952Z,101511.35
2018-11-06T04:35:11.084Z,101507.72
2018-11-06T04:37:38.599Z,101508.28
2018-11-06T04:40:06.924Z,101505.02
2018-11-06T04:42:35.476Z,101505.47
2018-11-06T04:45:04.177Z,101506.77
2018-11-06T04:47:32.503Z,101516.05
2018-11-06T04:50:00.261Z,101504.94
2018-11-06T04:52:29.169Z,101516.40
2018-11-06T04:54:57.496Z,101516.09
2018-11-06T04:57:25.243Z,101512.41
2018-11-06T04:59:53.572Z,101513.09
2018-11-06T05:02:22.514Z,101515.62
2018-11-06T05:04:50.852Z,101507.30
2018-11-06T05:07:19.182Z,101512.66
2018-11-06T05:09:47.521Z,101511.75
2018-11-06T05:12:16.190Z,101513.25
2018-11-06T05:14:43.955Z,101518.23
2018-11-06T05:17:12.852Z,101521.30
2018-11-06T05:19:41.173Z,101533.50
2018-11-06T05:22:08.934Z,101535.78
2018-11-06T05:24:37.299Z,101528.62
2018-11-06T05:27:05.632Z,101531.85
2018-11-06T05:29:33.921Z,101537.06
2018-11-06T05:32:02.822Z,101537.33
2018-11-06T05:34:30.573Z,101535.39
2018-11-06T05:36:59.479Z,101536.86
2018-11-06T05:39:27.875Z,101537.96
2018-11-06T05:41:55.554Z,101539.70
2018-11-06T05:44:24.473Z,101536.69
2018-11-06T05:46:52.833Z,101536.37
2018-11-06T05:49:20.583Z,101535.73
2018-11-06T05:51:48.911Z,101528.78
2018-11-06T05:54:17.845Z,101528.12
2018-11-06T05:56:46.168Z,101529.97
2018-11-06T05:59:13.926Z,101528.84
2018-11-06T06:01:42.848Z,101529.74
2018-11-06T06:04:11.459Z,101531.05
2018-11-06T06:06:39.812Z,101530.33
2018-11-06T06:09:07.690Z,101522.46
2018-11-06T06:11:36.521Z,101526.22
2018-11-06T06:14:04.265Z,101527.97
2018-11-06T06:16:33.476Z,101528.52
2018-11-06T06:19:01.800Z,101533.55
2018-11-06T06:21:29.553Z,101533.75
2018-11-06T06:23:58.470Z,101535.44
2018-11-06T06:26:27.631Z,101531.34
2018-11-06T06:28:55.447Z,101530.82
2018-11-06T06:31:23.775Z,101530.41
2018-11-06T06:33:52.111Z,101525.06
2018-11-06T06:36:20.454Z,101529.41
2018-11-06T06:38:48.240Z,101528.97
2018-11-06T06:41:16.536Z,101531.41
2018-11-06T06:43:44.886Z,101527.84
2018-11-06T06:46:14.193Z,101529.30
2018-11-06T06:48:42.467Z,101527.41
2018-11-06T06:51:10.806Z,101527.61
2018-11-06T06:53:39.121Z,101529.98
2018-11-06T06:56:07.454Z,101523.38
2018-11-06T06:58:35.784Z,101523.70
2018-11-06T07:01:03.531Z,101527.39
2018-11-06T07:03:31.860Z,101530.44
2018-11-06T07:06:00.795Z,101538.16
2018-11-06T07:08:28.539Z,101538.41
2018-11-06T07:10:56.869Z,101545.97
2018-11-06T07:13:25.782Z,101548.20
2018-11-06T07:15:53.643Z,101549.73
2018-11-06T07:18:22.676Z,101542.58
2018-11-06T07:20:50.180Z,101546.72
2018-11-06T07:23:19.087Z,101548.80
2018-11-06T07:25:47.409Z,101547.31
2018-11-06T07:28:15.748Z,101540.48
2018-11-06T07:30:43.497Z,101537.38
2018-11-06T07:33:12.409Z,101537.81
2018-11-06T07:35:40.343Z,101533.50
2018-11-06T07:38:08.483Z,101537.06
2018-11-06T07:40:37.525Z,101542.08
2018-11-06T07:43:05.148Z,101539.30
2018-11-06T07:45:34.052Z,101544.73
2018-11-06T07:48:02.404Z,101542.52
2018-11-06T07:50:30.278Z,101538.50
2018-11-06T07:52:58.482Z,101539.45
2018-11-06T07:55:27.421Z,101538.63
2018-11-06T07:57:55.757Z,101534.44
2018-11-06T08:00:24.081Z,101537.81
2018-11-06T08:02:52.416Z,101536.02
2018-11-06T08:05:20.974Z,101538.42
2018-11-06T08:07:48.614Z,101538.13
2018-11-06T08:10:16.940Z,101534.13
2018-11-06T08:12:45.842Z,101538.03
2018-11-06T08:15:13.655Z,101537.44
2018-11-06T08:17:41.925Z,101532.78
2018-11-06T08:20:11.315Z,101537.63
2018-11-06T08:22:39.052Z,101540.50
2018-11-06T08:25:07.957Z,101538.75
2018-11-06T08:27:36.315Z,101534.02
2018-11-06T08:30:04.024Z,101536.20
2018-11-06T08:32:33.213Z,101535.67
2018-11-06T08:35:01.461Z,101530.57
2018-11-06T08:37:29.789Z,101536.34
2018-11-06T08:39:58.117Z,101540.98
2018-11-06T08:42:27.095Z,101538.67
2018-11-06T08:44:55.355Z,101537.33
2018-11-06T08:47:23.681Z,101544.48
2018-11-06T08:49:52.012Z,101541.46
2018-11-06T08:52:20.334Z,101546.35
2018-11-06T08:54:48.677Z,101537.29
2018-11-06T08:57:16.993Z,101531.82
2018-11-06T08:59:45.335Z,101533.68
2018-11-06T09:02:13.658Z,101520.48
2018-11-06T09:04:41.987Z,101525.53
2018-11-06T09:07:10.326Z,101527.70
2018-11-06T09:09:38.120Z,101535.68
2018-11-06T09:12:07.029Z,101533.44
2018-11-06T09:14:35.353Z,101540.17
2018-11-06T09:17:03.715Z,101532.91
2018-11-06T09:19:32.007Z,101533.22
2018-11-06T09:22:00.376Z,101530.80
2018-11-06T09:24:28.125Z,101534.55
2018-11-06T09:26:56.453Z,101533.34
2018-11-06T09:29:25.364Z,101537.73
2018-11-06T09:31:53.691Z,101535.98
2018-11-06T09:34:22.089Z,101539.27
2018-11-06T09:36:50.434Z,101532.42
2018-11-06T09:39:18.182Z,101526.80
2018-11-06T09:41:46.514Z,101528.19
2018-11-06T09:44:15.422Z,101525.28
2018-11-06T09:46:43.749Z,101523.39
2018-11-06T09:49:11.497Z,101525.47
2018-11-06T09:51:39.821Z,101520.50
2018-11-06T09:54:08.726Z,101516.59
2018-11-06T09:56:37.056Z,101515.23
2018-11-06T09:59:04.804Z,101514.45
2018-11-06T10:01:33.131Z,101511.87
2018-11-06T10:04:02.051Z,101503.94
2018-11-06T10:06:29.894Z,101504.78
2018-11-06T10:08:58.711Z,101501.30
2018-11-06T10:11:27.253Z,101500.69
2018-11-06T10:13:55.410Z,101498.23
2018-11-06T10:16:23.156Z,101492.22
2018-11-06T10:18:51.487Z,101497.17
2018-11-06T10:21:19.828Z,101493.47
2018-11-06T10:23:48.243Z,101484.55
2018-11-06T10:26:17.154Z,101485.03
2018-11-06T10:28:44.896Z,101473.05
2018-11-06T10:31:13.812Z,101480.53
2018-11-06T10:33:42.136Z,101473.78
2018-11-06T10:36:10.472Z,101472.14
2018-11-06T10:38:38.224Z,101471.00
2018-11-06T10:41:06.551Z,101474.64
2018-11-06T10:43:34.899Z,101475.61
2018-11-06T10:46:03.800Z,101467.77
2018-11-06T10:48:31.557Z,101473.02
2018-11-06T10:51:00.471Z,101474.19
2018-11-06T10:53:28.793Z,101479.22
2018-11-06T10:55:56.533Z,101482.30
2018-11-06T10:58:25.457Z,101476.64
2018-11-06T11:00:53.775Z,101472.84
2018-11-06T11:03:22.101Z,101475.34
2018-11-06T11:05:50.431Z,101475.72
2018-11-06T11:08:18.754Z,101469.80
2018-11-06T11:10:46.508Z,101469.91
2018-11-06T11:13:14.880Z,101470.66
2018-11-06T11:15:43.262Z,101478.84
2018-11-06T11:18:12.181Z,101473.51
2018-11-06T11:20:40.545Z,101471.37
2018-11-06T11:23:08.844Z,101476.56
2018-11-06T11:25:36.662Z,101472.73
2018-11-06T11:28:05.516Z,101457.16
2018-11-06T11:30:33.265Z,101455.91
2018-11-06T11:33:02.168Z,101456.22
2018-11-06T11:35:29.918Z,101452.51
2018-11-06T11:37:58.833Z,101453.16
2018-11-06T11:40:27.154Z,101449.07
2018-11-06T11:42:55.479Z,101453.00
2018-11-06T11:45:23.232Z,101454.08
2018-11-06T11:47:51.576Z,101452.99
2018-11-06T11:50:19.911Z,101451.92
2018-11-06T11:52:48.822Z,101458.62
2018-11-06T11:55:16.572Z,101462.61
2018-11-06T11:57:44.906Z,101458.39
2018-11-06T12:00:13.336Z,101461.42
2018-11-06T12:02:41.596Z,101460.52
2018-11-06T12:05:09.937Z,101463.34
2018-11-06T12:07:39.079Z,101464.63
2018-11-06T12:10:07.195Z,101462.56
2018-11-06T12:12:35.525Z,101463.44
2018-11-06T12:15:03.746Z,101462.66
2018-11-06T12:17:32.364Z,101461.91
2018-11-06T12:20:00.690Z,101459.72
2018-11-06T12:22:29.027Z,101459.80
2018-11-06T12:24:56.832Z,101462.12
2018-11-06T12:27:25.697Z,101459.03
2018-11-06T12:29:54.039Z,101455.27
2018-11-06T12:32:22.384Z,101454.45
2018-11-06T12:34:50.727Z,101454.45
2018-11-06T12:37:18.528Z,101447.92
2018-11-06T12:39:47.427Z,101455.60
2018-11-06T12:42:15.175Z,101459.25
2018-11-06T12:44:44.079Z,101460.95
2018-11-06T12:47:11.835Z,101458.42
2018-11-06T12:49:40.769Z,101452.55
2018-11-06T12:52:09.089Z,101459.68
2018-11-06T12:54:37.409Z,101456.17
2018-11-06T12:57:05.157Z,101452.34
2018-11-06T12:59:34.323Z,101447.11
2018-11-06T13:02:02.098Z,101450.67
2018-11-06T13:04:30.427Z,101447.80
2018-11-06T13:06:58.757Z,101443.70
2018-11-06T13:09:27.089Z,101441.42
2018-11-06T13:11:56.006Z,101438.19
2018-11-06T13:14:24.378Z,101440.34
2018-11-06T13:16:52.711Z,101443.86
2018-11-06T13:19:20.453Z,101439.98
2018-11-06T13:21:49.351Z,101445.06
2018-11-06T13:24:17.695Z,101441.85
2018-11-06T13:26:46.014Z,101446.94
2018-11-06T13:29:14.923Z,101438.72
2018-11-06T13:31:42.669Z,101433.23
2018-11-06T13:34:11.582Z,101442.34
2018-11-06T13:36:39.921Z,101439.21
2018-11-06T13:39:08.250Z,101440.44
2018-11-06T13:41:36.574Z,101443.59
2018-11-06T13:44:05.063Z,101443.34
2018-11-06T13:46:33.233Z,101439.66
2018-11-06T13:49:01.567Z,101435.39
2018-11-06T13:51:29.896Z,101433.08
2018-11-06T13:53:57.648Z,101438.84
2018-11-06T13:56:26.547Z,101435.83
2018-11-06T13:58:54.289Z,101439.93
2018-11-06T14:01:23.206Z,101443.02
2018-11-06T14:03:51.551Z,101443.22
2018-11-06T14:06:19.882Z,101440.48
2018-11-06T14:08:47.632Z,101440.66
2018-11-06T14:11:15.978Z,101439.63
2018-11-06T14:13:44.895Z,101434.52
2018-11-06T14:16:12.644Z,101434.20
2018-11-06T14:18:41.580Z,101431.12
2018-11-06T14:21:09.945Z,101432.30
2018-11-06T14:23:37.653Z,101430.06
2018-11-06T14:26:06.565Z,101427.45
2018-11-06T14:28:34.319Z,101423.52
2018-11-06T14:31:02.676Z,101422.94
2018-11-06T14:33:31.581Z,101432.00
2018-11-06T14:36:00.017Z,101430.53
2018-11-06T14:38:28.266Z,101432.86
2018-11-06T14:40:56.591Z,101429.14
2018-11-06T14:43:24.944Z,101430.52
2018-11-06T14:45:53.506Z,101433.87
2018-11-06T14:48:21.136Z,101438.77
2018-11-06T14:50:49.975Z,101439.84
2018-11-06T14:53:18.304Z,101439.85
2018-11-06T14:55:46.685Z,101442.22
2018-11-06T14:58:14.960Z,101444.30
2018-11-06T15:00:43.297Z,101448.42
2018-11-06T15:03:11.326Z,101448.00
2018-11-06T15:05:40.302Z,101453.73
2018-11-06T15:08:07.996Z,101454.66
2018-11-06T15:10:36.911Z,101456.35
2018-11-06T15:13:05.239Z,101458.10
2018-11-06T15:15:33.581Z,101456.17
2018-11-06T15:18:01.910Z,101464.76
2018-11-06T15:20:29.746Z,101464.37
2018-11-06T15:22:58.840Z,101466.66
2018-11-06T15:25:26.365Z,101464.95
2018-11-06T15:27:54.691Z,101462.57
2018-11-06T15:30:23.604Z,101465.16
2018-11-06T15:32:52.593Z,101465.61
2018-11-06T15:35:20.333Z,101462.54
2018-11-06T15:37:49.237Z,101469.23
2018-11-06T15:40:16.986Z,101475.39
2018-11-06T15:42:45.898Z,101470.18
2018-11-06T15:45:13.652Z,101465.38
2018-11-06T15:47:42.562Z,101461.34
2018-11-06T15:50:10.898Z,101463.63
2018-11-06T15:52:39.241Z,101461.41
2018-11-06T15:55:08.168Z,101464.63
2018-11-06T15:57:36.504Z,101467.11
2018-11-06T16:00:04.845Z,101471.55
2018-11-06T16:02:32.598Z,101474.25
2018-11-06T16:05:01.515Z,101473.81
2018-11-06T16:07:29.267Z,101478.39
2018-11-06T16:09:57.601Z,101476.15
2018-11-06T16:12:25.929Z,101476.63
2018-11-06T16:14:54.856Z,101473.69
2018-11-06T16:17:22.611Z,101479.66
2018-11-06T16:19:52.047Z,101485.41
2018-11-06T16:22:20.822Z,101486.67
2018-11-06T16:24:49.164Z,101490.69
2018-11-06T16:27:16.915Z,101494.75
2018-11-06T16:29:45.875Z,101492.69
2018-11-06T16:32:13.592Z,101494.52
2018-11-06T16:34:42.514Z,101501.25
2018-11-06T16:37:10.354Z,101506.88
2018-11-06T16:39:39.235Z,101512.37
2018-11-06T16:42:07.559Z,101512.91
2018-11-06T16:44:35.936Z,101519.36
2018-11-06T16:47:04.375Z,101519.02
2018-11-06T16:49:32.731Z,101518.61
2018-11-06T16:52:01.147Z,101519.50
2018-11-06T16:54:29.505Z,101515.30
2018-11-06T16:56:57.966Z,101515.20
2018-11-06T16:59:26.262Z,101513.77
2018-11-06T17:01:54.585Z,101513.37
2018-11-06T17:04:22.341Z,101513.24
2018-11-06T17:06:51.262Z,101516.97
2018-11-06T17:09:19.607Z,101522.36
2018-11-06T17:11:48.048Z,101514.32
2018-11-06T17:14:16.361Z,101515.50
2018-11-06T17:16:44.105Z,101516.13
2018-11-06T17:19:13.025Z,101513.86
2018-11-06T17:21:41.373Z,101515.39
2018-11-06T17:24:09.741Z,101520.94
2018-11-06T17:26:38.319Z,101523.07
2018-11-06T17:29:06.679Z,101520.25
2018-11-06T17:31:34.436Z,101519.52
2018-11-06T17:34:03.363Z,101520.98
2018-11-06T17:36:31.202Z,101524.61
2018-11-06T17:39:00.133Z,101522.02
2018-11-06T17:41:27.964Z,101519.65
2018-11-06T17:43:56.898Z,101519.44
2018-11-06T17:46:25.369Z,101514.08
2018-11-06T17:48:53.817Z,101517.29
2018-11-06T17:51:22.392Z,101519.98
2018-11-06T17:53:49.935Z,101518.37
2018-11-06T17:56:18.933Z,101515.71
2018-11-06T17:58:47.287Z,101516.94
2018-11-06T18:01:15.072Z,101521.02
2018-11-06T18:03:44.300Z,101515.75
2018-11-06T18:06:12.358Z,101508.87
2018-11-06T18:08:40.692Z,101518.88
2018-11-06T18:11:09.265Z,101515.82
2018-11-06T18:13:36.794Z,101517.64
2018-11-06T18:16:05.721Z,101519.81
2018-11-06T18:18:34.068Z,101518.13
2018-11-06T18:21:02.410Z,101523.34
2018-11-06T18:23:30.201Z,101523.20
2018-11-06T18:25:59.205Z,101524.21
2018-11-06T18:28:27.738Z,101525.86
2018-11-06T18:30:55.845Z,101529.03
2018-11-06T18:33:24.221Z,101526.53
2018-11-06T18:35:52.562Z,101530.27
2018-11-06T18:38:20.922Z,101531.59
2018-11-06T18:40:49.252Z,101533.92
2018-11-06T18:43:17.015Z,101535.94
2018-11-06T18:45:46.259Z,101534.89
2018-11-06T18:48:14.618Z,101533.81
2018-11-06T18:50:42.963Z,101535.41
2018-11-06T18:53:11.315Z,101534.58
2018-11-06T18:55:39.665Z,101539.38
2018-11-06T18:58:07.562Z,101538.63
2018-11-06T19:00:35.913Z,101543.73
2018-11-06T19:03:04.448Z,101542.33
2018-11-06T19:05:33.508Z,101545.63
2018-11-06T19:08:01.273Z,101546.41
2018-11-06T19:10:30.459Z,101545.30
2018-11-06T19:12:59.061Z,101545.47
2018-11-06T19:15:26.829Z,101546.17
2018-11-06T19:17:55.779Z,101555.58
2018-11-06T19:20:23.685Z,101558.83
2018-11-06T19:22:52.126Z,101566.80
2018-11-06T19:25:22.424Z,101561.70
2018-11-06T19:27:52.059Z,101560.63
2018-11-06T19:30:20.488Z,101553.70
2018-11-06T19:32:48.745Z,101556.71
2018-11-06T19:35:17.165Z,101557.79
2018-11-06T19:37:46.350Z,101558.88
2018-11-06T19:40:15.324Z,101559.32
2018-11-06T19:42:45.941Z,101562.25
2018-11-06T19:45:20.135Z,101564.58
2018-11-06T19:47:49.596Z,101561.36
2018-11-06T19:50:22.260Z,101563.70
2018-11-06T19:52:52.595Z,101564.89
2018-11-06T19:55:21.553Z,101557.53
2018-11-06T19:57:49.658Z,101560.19
2018-11-06T20:00:18.618Z,101564.00
2018-11-06T20:02:50.344Z,101563.12
2018-11-06T20:05:19.225Z,101563.25
2018-11-06T20:07:48.523Z,101567.31
2018-11-06T20:10:16.803Z,101566.22
2018-11-06T20:12:45.389Z,101568.84
2018-11-06T20:15:13.140Z,101567.67
2018-11-06T20:17:42.092Z,101570.92
2018-11-06T20:20:10.455Z,101563.91
2018-11-06T20:22:38.946Z,101569.91
2018-11-06T20:25:07.319Z,101567.75
2018-11-06T20:27:35.685Z,101569.52
2018-11-06T20:30:04.131Z,101569.77
2018-11-06T20:32:32.443Z,101570.52
2018-11-06T20:35:01.767Z,101571.98
2018-11-06T20:37:29.193Z,101571.45
2018-11-06T20:39:57.470Z,101571.58
2018-11-06T20:42:25.879Z,101569.91
2018-11-06T20:44:53.638Z,101566.60
2018-11-06T20:47:22.568Z,101570.20
2018-11-06T20:49:51.065Z,101561.88
2018-11-06T20:52:19.296Z,101559.62
2018-11-06T20:54:47.631Z,101562.03
2018-11-06T20:57:15.435Z,101561.83
2018-11-06T20:59:44.399Z,101559.59
2018-11-06T21:02:12.107Z,101561.00
2018-11-06T21:04:41.011Z,101561.42
2018-11-06T21:07:09.339Z,101562.78
2018-11-06T21:09:37.759Z,101562.37
2018-11-06T21:12:06.105Z,101559.30
2018-11-06T21:14:34.442Z,101558.50
2018-11-06T21:17:03.008Z,101559.59
2018-11-06T21:19:31.774Z,101560.38
2018-11-06T21:22:00.151Z,101558.36
2018-11-06T21:24:28.057Z,101557.42
2018-11-06T21:26:56.558Z,101561.19
2018-11-06T21:29:25.137Z,101561.86
2018-11-06T21:31:53.947Z,101564.72
2018-11-06T21:34:22.364Z,101562.31
2018-11-06T21:36:50.755Z,101570.38
2018-11-06T21:39:18.551Z,101567.43
2018-11-06T21:41:46.990Z,101564.58
2018-11-06T21:44:15.727Z,101565.92
2018-11-06T21:46:43.985Z,101565.09
2018-11-06T21:49:13.715Z,101561.75
2018-11-06T21:51:42.162Z,101559.23
2018-11-06T21:54:09.916Z,101560.91
2018-11-06T21:56:38.966Z,101563.45
2018-11-06T21:59:06.725Z,101562.85
2018-11-06T22:01:35.667Z,101567.66
2018-11-06T22:04:04.009Z,101564.03
2018-11-06T22:06:32.380Z,101564.02
2018-11-06T22:09:00.680Z,101560.89
2018-11-06T22:11:29.137Z,101563.91
2018-11-06T22:13:56.914Z,101558.63
2018-11-06T22:16:25.810Z,101558.92
2018-11-06T22:18:54.133Z,101563.36
2018-11-06T22:21:22.482Z,101561.61
2018-11-06T22:23:50.807Z,101560.36
2018-11-06T22:26:18.886Z,101556.38
2018-11-06T22:28:46.906Z,101560.97
2018-11-06T22:31:15.824Z,101565.35
2018-11-06T22:33:44.178Z,101564.76
2018-11-06T22:36:12.500Z,101567.62
2018-11-06T22:38:40.821Z,101565.66
2018-11-06T22:41:08.569Z,101566.23
2018-11-06T22:43:37.503Z,101571.42
2018-11-06T22:46:05.232Z,101573.51
2018-11-06T22:48:33.601Z,101574.52
2018-11-06T22:51:01.939Z,101577.73
2018-11-06T22:53:30.267Z,101582.99
2018-11-06T22:55:59.176Z,101582.50
2018-11-06T22:58:26.919Z,101581.56
2018-11-06T23:00:55.830Z,101586.89
2018-11-06T23:03:24.164Z,101584.72
2018-11-06T23:05:52.446Z,101585.30
2018-11-06T23:08:20.246Z,101588.34
2018-11-06T23:10:49.076Z,101588.34
2018-11-06T23:13:17.984Z,101590.11
2018-11-06T23:15:45.732Z,101586.34
2018-11-06T23:18:14.657Z,101588.66
2018-11-06T23:20:42.417Z,101588.84
2018-11-06T23:23:11.322Z,101588.55
2018-11-06T23:25:39.654Z,101587.70
2018-11-06T23:28:07.982Z,101583.82
2018-11-06T23:30:35.739Z,101587.67
2018-11-06T23:33:04.070Z,101584.92
2018-11-06T23:35:33.043Z,101586.13
2018-11-06T23:38:01.376Z,101585.45
2018-11-06T23:40:29.120Z,101586.39
2018-11-06T23:42:57.442Z,101585.31
2018-11-06T23:45:25.777Z,101582.27
2018-11-06T23:47:54.105Z,101581.02
2018-11-06T23:50:23.017Z,101581.59
2018-11-06T23:52:51.352Z,101583.27
2018-11-06T23:55:19.681Z,101577.92
2018-11-06T23:57:48.014Z,101579.98
